Time;durP1;ratioP1;P1;durP2;ratioP2;P2;SDS_P1;SDS_P2;PMS_P1;PMS_P2;Temp;Humidity;BMP_temperature;BMP_pressure;BME280_temperature;BME280_humidity;BME280_pressure;Samples;Min_cycle;Max_cycle;Signal;HPM_P1;HPM_P2
2023/11/22 00:02:16;;;;;;;2.97;2.10;;;6.20;97.70;;;;;;6151158;23;20005;-66
2023/11/22 00:04:42;;;;;;;3.40;2.33;;;6.10;97.60;;;;;;6150244;23;20362;-67
2023/11/22 00:07:07;;;;;;;3.60;2.38;;;6.20;97.70;;;;;;6150881;23;20060;-67
2023/11/22 00:09:33;;;;;;;3.67;2.10;;;6.10;97.70;;;;;;6124806;23;20012;-71
2023/11/22 00:12:00;;;;;;;3.55;2.50;;;6.20;97.80;;;;;;6124201;23;20014;-69
2023/11/22 00:14:25;;;;;;;4.20;2.83;;;6.10;97.70;;;;;;6150672;23;20016;-67
2023/11/22 00:16:51;;;;;;;3.88;2.50;;;6.10;97.70;;;;;;6151286;23;20009;-69
2023/11/22 00:19:18;;;;;;;4.18;2.70;;;6.10;97.70;;;;;;6150220;23;20008;-67
2023/11/22 00:21:44;;;;;;;3.75;2.35;;;6.10;97.70;;;;;;6150132;23;20055;-69
2023/11/22 00:24:09;;;;;;;4.65;2.53;;;6.10;97.70;;;;;;6151183;23;20005;-68
2023/11/22 00:26:35;;;;;;;4.30;2.60;;;6.10;97.70;;;;;;6150789;23;20005;-68
2023/11/22 00:29:01;;;;;;;4.43;2.53;;;6.10;97.60;;;;;;6151336;23;20008;-68
2023/11/22 00:31:26;;;;;;;4.82;2.60;;;6.00;97.60;;;;;;6150330;23;20440;-67
2023/11/22 00:33:52;;;;;;;4.47;2.75;;;6.00;97.70;;;;;;6151027;23;20448;-70
2023/11/22 00:36:24;;;;;;;3.90;2.30;;;6.00;97.80;;;;;;6150209;23;20005;-70
2023/11/22 00:38:49;;;;;;;3.85;2.67;;;6.00;97.80;;;;;;6150533;23;20060;-66
2023/11/22 00:41:15;;;;;;;4.68;2.78;;;5.90;97.80;;;;;;6150216;23;20001;-67
2023/11/22 00:43:41;;;;;;;4.32;2.60;;;5.90;97.80;;;;;;6150549;23;20002;-68
2023/11/22 00:46:07;;;;;;;4.28;2.70;;;5.90;97.90;;;;;;6150127;23;20009;-68
2023/11/22 00:48:32;;;;;;;4.30;2.40;;;5.90;97.90;;;;;;6149646;23;19998;-67
2023/11/22 00:50:58;;;;;;;4.72;2.55;;;5.90;97.90;;;;;;6150242;23;20013;-67
2023/11/22 00:53:23;;;;;;;3.72;2.30;;;5.90;97.90;;;;;;6149754;23;20005;-67
2023/11/22 00:55:49;;;;;;;3.58;2.38;;;5.90;97.90;;;;;;6149144;23;20020;-70
2023/11/22 00:58:15;;;;;;;3.65;2.30;;;5.90;97.90;;;;;;6150301;23;20757;-66
2023/11/22 01:00:40;;;;;;;3.55;2.30;;;5.90;98.00;;;;;;6150174;23;20010;-67
2023/11/22 01:03:08;;;;;;;3.65;2.40;;;5.90;98.00;;;;;;6150217;23;20390;-67
2023/11/22 01:05:34;;;;;;;3.10;2.10;;;5.90;98.00;;;;;;6150174;23;20077;-67
2023/11/22 01:08:00;;;;;;;5.65;2.75;;;5.90;98.00;;;;;;6150209;23;20310;-67
2023/11/22 01:10:25;;;;;;;3.35;2.15;;;5.80;98.00;;;;;;6150120;23;20001;-68
2023/11/22 01:12:51;;;;;;;4.00;2.63;;;5.80;98.00;;;;;;6150647;23;20008;-68
2023/11/22 01:15:16;;;;;;;4.70;2.92;;;5.70;97.90;;;;;;6150408;23;20006;-67
2023/11/22 01:17:42;;;;;;;3.15;2.10;;;5.70;98.20;;;;;;6149912;23;20067;-70
2023/11/22 01:20:10;;;;;;;3.90;2.58;;;5.80;98.20;;;;;;6124342;23;20449;-67
2023/11/22 01:22:37;;;;;;;3.03;2.20;;;5.70;98.20;;;;;;6148641;23;20033;-67
2023/11/22 01:25:04;;;;;;;3.60;2.33;;;5.70;98.30;;;;;;6150342;23;19998;-68
2023/11/22 01:27:29;;;;;;;3.90;2.38;;;5.70;98.30;;;;;;6150319;23;19998;-72
2023/11/22 01:29:55;;;;;;;4.15;2.55;;;5.70;98.30;;;;;;6150315;23;20044;-71
2023/11/22 01:32:21;;;;;;;4.13;2.40;;;5.80;98.30;;;;;;6150701;23;20016;-68
2023/11/22 01:34:46;;;;;;;3.88;2.60;;;5.70;98.20;;;;;;6150275;23;20384;-66
2023/11/22 01:37:12;;;;;;;5.38;2.67;;;5.70;98.30;;;;;;6149267;23;20001;-67
2023/11/22 01:39:40;;;;;;;3.97;2.42;;;5.60;98.30;;;;;;6149760;23;20076;-67
2023/11/22 01:42:06;;;;;;;4.53;2.70;;;5.60;98.40;;;;;;6123956;23;20009;-68
2023/11/22 01:44:32;;;;;;;3.85;2.70;;;5.50;98.50;;;;;;6149200;23;20006;-68
2023/11/22 01:46:58;;;;;;;3.47;2.30;;;5.50;98.60;;;;;;6149802;23;20002;-66
2023/11/22 01:49:23;;;;;;;3.30;2.17;;;5.50;98.60;;;;;;6150008;23;19998;-67
2023/11/22 01:51:49;;;;;;;4.10;2.50;;;5.60;98.70;;;;;;6149997;23;20009;-66
2023/11/22 01:54:17;;;;;;;3.72;2.30;;;5.60;98.50;;;;;;6150175;23;20012;-66
2023/11/22 01:56:44;;;;;;;3.97;2.63;;;5.60;98.50;;;;;;6149798;23;20492;-69
2023/11/22 01:59:11;;;;;;;3.53;2.22;;;5.50;98.50;;;;;;6150088;23;20001;-65
2023/11/22 02:01:37;;;;;;;3.65;2.10;;;5.50;98.50;;;;;;6148866;23;20006;-66
2023/11/22 02:04:02;;;;;;;5.20;2.97;;;5.50;98.60;;;;;;6149754;23;20025;-67
2023/11/22 02:06:31;;;;;;;4.00;2.40;;;5.50;98.50;;;;;;6148290;23;20006;-71
2023/11/22 02:08:56;;;;;;;3.50;2.20;;;5.60;98.50;;;;;;6149745;23;20009;-68
2023/11/22 02:11:22;;;;;;;3.03;2.05;;;5.60;98.30;;;;;;6149297;23;20006;-67
2023/11/22 02:13:51;;;;;;;4.18;2.30;;;5.60;98.30;;;;;;6149428;23;20299;-67
2023/11/22 02:16:17;;;;;;;3.70;2.20;;;5.60;98.30;;;;;;6148795;23;20618;-70
2023/11/22 02:18:47;;;;;;;3.50;2.30;;;5.60;98.20;;;;;;6149918;23;20056;-67
2023/11/22 02:21:14;;;;;;;4.18;2.38;;;5.50;98.50;;;;;;6149464;23;20010;-70
2023/11/22 02:23:40;;;;;;;3.65;2.28;;;5.50;98.20;;;;;;6149430;23;20005;-66
2023/11/22 02:26:06;;;;;;;3.70;2.30;;;5.50;98.20;;;;;;6149130;23;19994;-68
2023/11/22 02:28:32;;;;;;;3.72;2.45;;;5.50;98.20;;;;;;6149637;23;20005;-67
2023/11/22 02:30:57;;;;;;;3.17;2.13;;;5.40;98.10;;;;;;6148378;23;20005;-65
2023/11/22 02:33:23;;;;;;;3.83;1.88;;;5.50;98.10;;;;;;6148525;23;20006;-67
2023/11/22 02:35:49;;;;;;;3.30;1.98;;;5.40;98.10;;;;;;6148833;23;20043;-66
2023/11/22 02:38:18;;;;;;;2.85;2.03;;;5.40;98.10;;;;;;6149247;23;20005;-68
2023/11/22 02:40:43;;;;;;;5.10;2.90;;;5.40;98.10;;;;;;6149378;23;20333;-68
2023/11/22 02:43:11;;;;;;;5.32;3.20;;;5.30;97.90;;;;;;6149853;23;20009;-70
2023/11/22 02:45:36;;;;;;;4.78;2.80;;;5.20;98.00;;;;;;6148993;23;20072;-69
2023/11/22 02:48:03;;;;;;;4.15;2.50;;;5.10;98.20;;;;;;6149416;23;19997;-69
2023/11/22 02:50:29;;;;;;;3.00;1.98;;;5.10;98.50;;;;;;6149742;23;20314;-67
2023/11/22 02:52:55;;;;;;;4.30;2.65;;;5.20;98.60;;;;;;6149247;23;20012;-67
2023/11/22 02:55:20;;;;;;;4.45;2.20;;;5.20;98.60;;;;;;6148881;23;20024;-70
2023/11/22 02:57:46;;;;;;;4.05;2.50;;;5.20;98.60;;;;;;6148523;23;20009;-71
2023/11/22 03:00:14;;;;;;;2.80;2.00;;;5.20;98.70;;;;;;6149479;23;20033;-69
2023/11/22 03:02:42;;;;;;;4.43;2.28;;;5.20;98.60;;;;;;6148910;23;20033;-70
2023/11/22 03:05:09;;;;;;;4.35;2.58;;;5.20;98.50;;;;;;6121465;23;20001;-67
2023/11/22 03:07:35;;;;;;;3.85;2.30;;;5.20;98.40;;;;;;6149094;23;20002;-73
2023/11/22 03:10:02;;;;;;;3.28;2.45;;;5.20;98.40;;;;;;6147538;23;20077;-68
2023/11/22 03:12:27;;;;;;;3.40;2.05;;;5.20;98.30;;;;;;6148883;23;20093;-67
2023/11/22 03:14:58;;;;;;;2.20;1.70;;;5.20;98.30;;;;;;6123091;23;20462;-68
2023/11/22 03:17:24;;;;;;;1.80;1.55;;;5.20;98.30;;;;;;6147031;23;20010;-68
2023/11/22 03:19:49;;;;;;;3.80;2.50;;;5.20;98.20;;;;;;6149914;23;20028;-67
2023/11/22 03:22:15;;;;;;;4.28;2.20;;;5.10;98.20;;;;;;6148944;23;20084;-66
2023/11/22 03:24:40;;;;;;;2.85;1.80;;;5.10;98.30;;;;;;6149273;23;20008;-66
2023/11/22 03:27:06;;;;;;;3.78;2.10;;;5.10;98.40;;;;;;6148775;23;19997;-70
2023/11/22 03:29:32;;;;;;;3.10;1.90;;;5.00;98.40;;;;;;6150723;23;20002;-68
2023/11/22 03:31:58;;;;;;;3.78;2.20;;;5.00;98.50;;;;;;6151133;23;20138;-68
2023/11/22 03:34:23;;;;;;;3.10;1.92;;;5.00;98.60;;;;;;6150592;23;20005;-67
2023/11/22 03:36:49;;;;;;;2.75;1.90;;;5.00;98.60;;;;;;6151246;23;20080;-68
2023/11/22 03:39:16;;;;;;;3.20;1.92;;;5.00;98.70;;;;;;6150634;23;20002;-71
2023/11/22 03:41:42;;;;;;;2.78;1.83;;;5.00;98.70;;;;;;6124076;23;20088;-67
2023/11/22 03:44:11;;;;;;;2.97;1.88;;;5.00;98.70;;;;;;6151076;23;20052;-68
2023/11/22 03:46:38;;;;;;;4.10;2.17;;;5.00;98.60;;;;;;6124428;23;20001;-74
2023/11/22 03:49:06;;;;;;;3.08;1.88;;;5.00;98.60;;;;;;6124929;23;20058;-69
2023/11/22 03:51:32;;;;;;;3.58;2.10;;;5.00;98.60;;;;;;6150459;23;20006;-68
2023/11/22 03:53:58;;;;;;;4.63;2.00;;;5.10;98.60;;;;;;6150798;23;20013;-67
2023/11/22 03:56:23;;;;;;;3.13;1.80;;;5.10;98.40;;;;;;6150666;23;20437;-71
2023/11/22 03:58:49;;;;;;;2.38;1.80;;;5.00;98.40;;;;;;6124450;23;20048;-71
2023/11/22 04:01:16;;;;;;;3.50;1.95;;;5.00;98.30;;;;;;6149382;23;20089;-70
2023/11/22 04:03:42;;;;;;;2.80;1.85;;;5.00;98.30;;;;;;6150212;23;20008;-70
2023/11/22 04:06:08;;;;;;;3.28;2.03;;;5.00;98.20;;;;;;6150687;23;20002;-68
2023/11/22 04:08:33;;;;;;;3.67;1.90;;;5.00;98.10;;;;;;6151126;23;20029;-68
2023/11/22 04:10:59;;;;;;;3.40;1.92;;;5.00;98.20;;;;;;6124177;23;20056;-69
2023/11/22 04:13:24;;;;;;;3.53;1.95;;;5.00;98.20;;;;;;6150442;23;20014;-67
2023/11/22 04:15:50;;;;;;;3.15;1.77;;;5.00;98.20;;;;;;6150616;23;20010;-68
2023/11/22 04:18:16;;;;;;;2.72;1.80;;;4.90;98.20;;;;;;6150105;23;20006;-69
2023/11/22 04:20:42;;;;;;;2.28;1.70;;;4.90;98.50;;;;;;6150236;23;20561;-67
2023/11/22 04:23:10;;;;;;;2.97;1.90;;;5.00;98.30;;;;;;6149279;23;20006;-68
2023/11/22 04:25:36;;;;;;;3.15;2.03;;;5.00;98.20;;;;;;6150828;23;20081;-67
2023/11/22 04:28:02;;;;;;;2.70;1.77;;;4.90;98.10;;;;;;6150624;23;20009;-67
2023/11/22 04:30:27;;;;;;;3.15;1.92;;;4.90;98.10;;;;;;6150519;23;20029;-68
2023/11/22 04:32:53;;;;;;;2.28;1.63;;;4.90;98.10;;;;;;6150467;23;20006;-70
2023/11/22 04:35:19;;;;;;;3.00;1.95;;;4.90;98.30;;;;;;6150477;23;20016;-69
2023/11/22 04:37:44;;;;;;;3.33;2.33;;;4.90;98.30;;;;;;6150178;23;20481;-70
2023/11/22 04:40:11;;;;;;;2.88;1.77;;;4.90;98.20;;;;;;6150495;23;20001;-67
2023/11/22 04:42:37;;;;;;;3.28;2.00;;;4.90;98.20;;;;;;6150332;23;20009;-69
2023/11/22 04:45:03;;;;;;;2.67;1.77;;;4.90;98.10;;;;;;6150553;23;20457;-66
2023/11/22 04:47:29;;;;;;;2.25;1.73;;;5.00;98.10;;;;;;6150641;23;20084;-66
2023/11/22 04:49:55;;;;;;;3.00;1.92;;;5.00;98.00;;;;;;6150256;23;20029;-66
2023/11/22 04:52:20;;;;;;;2.67;1.60;;;5.00;97.90;;;;;;6150069;23;20010;-72
2023/11/22 04:54:46;;;;;;;2.45;1.90;;;5.00;97.80;;;;;;6149214;23;20016;-71
2023/11/22 04:57:11;;;;;;;3.40;1.70;;;5.00;97.70;;;;;;6150371;23;20081;-67
2023/11/22 04:59:38;;;;;;;2.78;2.00;;;4.90;97.50;;;;;;6150901;23;20005;-67
2023/11/22 05:02:04;;;;;;;2.33;1.88;;;4.90;97.50;;;;;;6147172;23;20028;-69
2023/11/22 05:04:29;;;;;;;3.72;2.10;;;4.90;97.60;;;;;;6150191;23;20442;-67
2023/11/22 05:06:55;;;;;;;2.80;1.83;;;4.90;97.60;;;;;;6150043;23;20430;-67
2023/11/22 05:09:21;;;;;;;2.67;1.75;;;4.80;97.60;;;;;;6151003;23;20005;-67
2023/11/22 05:11:47;;;;;;;2.72;1.63;;;4.80;97.60;;;;;;6150170;23;20065;-70
2023/11/22 05:14:15;;;;;;;2.85;1.83;;;4.70;97.60;;;;;;6150241;23;20013;-69
2023/11/22 05:16:41;;;;;;;3.28;2.10;;;4.70;97.50;;;;;;6123497;23;20005;-69
2023/11/22 05:19:07;;;;;;;2.88;1.90;;;4.60;97.40;;;;;;6148998;23;20001;-69
2023/11/22 05:21:32;;;;;;;2.80;1.90;;;4.50;97.50;;;;;;6150291;23;20068;-67
2023/11/22 05:23:59;;;;;;;2.75;1.70;;;4.40;97.60;;;;;;6149425;23;20002;-68
2023/11/22 05:26:24;;;;;;;3.25;1.75;;;4.40;97.80;;;;;;6149994;23;20422;-69
2023/11/22 05:28:50;;;;;;;2.08;1.52;;;4.40;97.80;;;;;;6123379;23;20093;-67
2023/11/22 05:31:16;;;;;;;3.08;1.80;;;4.40;97.60;;;;;;6123902;23;20009;-67
2023/11/22 05:33:42;;;;;;;3.47;2.08;;;4.40;97.70;;;;;;6149389;23;19997;-71
2023/11/22 05:36:08;;;;;;;2.20;1.70;;;4.30;97.50;;;;;;6149464;23;20051;-70
2023/11/22 05:38:34;;;;;;;3.00;1.80;;;4.40;97.60;;;;;;6149831;23;19998;-69
2023/11/22 05:41:02;;;;;;;2.38;1.73;;;4.40;97.50;;;;;;6150295;23;20058;-67
2023/11/22 05:43:28;;;;;;;3.10;1.88;;;4.40;97.40;;;;;;6123646;23;20016;-70
2023/11/22 05:45:53;;;;;;;2.35;1.73;;;4.40;97.30;;;;;;6149300;23;20002;-68
2023/11/22 05:48:19;;;;;;;2.63;1.67;;;4.40;97.30;;;;;;6149995;23;20369;-67
2023/11/22 05:50:46;;;;;;;2.55;1.77;;;4.40;97.20;;;;;;6148708;23;19998;-71
2023/11/22 05:53:11;;;;;;;2.60;1.70;;;4.40;97.10;;;;;;6149293;23;20017;-67
2023/11/22 05:55:37;;;;;;;3.90;2.30;;;4.40;97.10;;;;;;6149028;23;20091;-69
2023/11/22 05:58:03;;;;;;;2.47;1.70;;;4.40;97.10;;;;;;6149188;23;20033;-69
2023/11/22 06:00:29;;;;;;;2.50;1.67;;;4.50;97.00;;;;;;6149774;23;20060;-68
2023/11/22 06:02:55;;;;;;;2.47;1.80;;;4.50;96.90;;;;;;6149987;23;20033;-71
2023/11/22 06:05:21;;;;;;;2.35;1.70;;;4.50;96.90;;;;;;6150252;23;20056;-67
2023/11/22 06:07:47;;;;;;;2.70;1.70;;;4.40;96.80;;;;;;6149566;23;20005;-70
2023/11/22 06:10:14;;;;;;;2.85;1.80;;;4.40;96.90;;;;;;6150548;23;19998;-67
2023/11/22 06:12:40;;;;;;;2.63;1.75;;;4.40;97.00;;;;;;6149201;23;20008;-68
2023/11/22 06:15:06;;;;;;;3.72;2.00;;;4.40;96.90;;;;;;6149768;23;20033;-69
2023/11/22 06:17:32;;;;;;;3.05;2.03;;;4.40;96.80;;;;;;6150140;23;20049;-67
2023/11/22 06:19:57;;;;;;;3.63;1.88;;;4.50;96.80;;;;;;6123437;23;20460;-69
2023/11/22 06:22:23;;;;;;;2.63;1.80;;;4.50;96.70;;;;;;6123407;23;20012;-67
2023/11/22 06:24:48;;;;;;;2.63;1.75;;;4.50;96.70;;;;;;6149197;23;20013;-66
2023/11/22 06:27:15;;;;;;;3.13;1.90;;;4.50;96.70;;;;;;6149947;23;20087;-69
2023/11/22 06:29:43;;;;;;;3.25;1.98;;;4.60;96.70;;;;;;6149078;23;20056;-70
2023/11/22 06:32:09;;;;;;;3.05;1.90;;;4.60;96.60;;;;;;6149989;23;20077;-67
2023/11/22 06:34:36;;;;;;;2.90;1.90;;;4.60;96.50;;;;;;6150003;23;20009;-69
2023/11/22 06:37:02;;;;;;;2.83;1.80;;;4.70;96.50;;;;;;6150361;23;20345;-71
2023/11/22 06:39:27;;;;;;;3.13;1.90;;;4.70;96.40;;;;;;6149024;23;20002;-70
2023/11/22 06:41:53;;;;;;;2.53;1.80;;;4.60;96.30;;;;;;6146920;23;20002;-68
2023/11/22 06:44:19;;;;;;;2.85;1.88;;;4.70;96.40;;;;;;6123554;23;20017;-71
2023/11/22 06:46:44;;;;;;;2.78;1.95;;;4.60;96.40;;;;;;6150066;23;20051;-67
2023/11/22 06:49:10;;;;;;;3.17;1.80;;;4.60;96.50;;;;;;6148880;23;19997;-70
2023/11/22 06:51:36;;;;;;;2.70;2.10;;;4.60;96.50;;;;;;6147524;23;20033;-70
2023/11/22 06:54:02;;;;;;;3.13;1.90;;;4.60;96.60;;;;;;6149250;23;20056;-68
2023/11/22 06:56:28;;;;;;;3.42;2.03;;;4.70;96.50;;;;;;6123469;23;20017;-70
2023/11/22 06:58:54;;;;;;;3.70;2.03;;;4.70;96.50;;;;;;6146954;23;20006;-68
2023/11/22 07:11:34;;;;;;;2.35;1.70;;;4.60;96.50;;;;;;6146004;23;20001;-70
2023/11/22 07:14:00;;;;;;;2.72;1.90;;;4.50;96.60;;;;;;6150827;23;20065;-68
2023/11/22 07:16:25;;;;;;;3.25;2.15;;;4.60;96.80;;;;;;6151364;23;20009;-68
2023/11/22 07:18:51;;;;;;;2.85;1.70;;;4.60;96.90;;;;;;6124966;23;20477;-68
2023/11/22 07:21:17;;;;;;;3.35;2.10;;;4.60;96.90;;;;;;6151715;23;19998;-70
2023/11/22 07:23:45;;;;;;;3.20;2.08;;;4.60;96.90;;;;;;6151340;23;20002;-70
2023/11/22 07:26:10;;;;;;;3.58;2.25;;;4.60;96.90;;;;;;6152139;23;20443;-68
2023/11/22 07:28:36;;;;;;;4.18;2.58;;;4.70;97.00;;;;;;6151726;23;20080;-69
2023/11/22 07:31:02;;;;;;;3.83;2.33;;;4.70;97.00;;;;;;6151001;23;20430;-72
2023/11/22 07:33:29;;;;;;;4.03;2.50;;;4.80;96.90;;;;;;6123783;23;20353;-71
2023/11/22 07:35:54;;;;;;;3.78;2.30;;;4.80;96.80;;;;;;6149038;23;20006;-68
2023/11/22 07:38:20;;;;;;;2.78;2.00;;;4.90;96.70;;;;;;6125734;23;20109;-67
2023/11/22 07:40:45;;;;;;;4.30;2.10;;;4.90;96.80;;;;;;6151425;23;20028;-68
2023/11/22 07:43:11;;;;;;;3.72;2.45;;;4.90;96.70;;;;;;6151738;23;20456;-68
2023/11/22 08:00:11;;;;;;;2.03;1.50;;;5.30;96.40;;;;;;6148780;23;20376;-70
2023/11/22 08:02:38;;;;;;;3.20;2.00;;;5.30;96.20;;;;;;6146909;23;20012;-69
2023/11/22 08:05:08;;;;;;;3.63;2.20;;;5.30;96.20;;;;;;6151484;23;20595;-70
2023/11/22 08:07:35;;;;;;;4.72;2.53;;;5.30;96.30;;;;;;6151069;23;20002;-68
2023/11/22 08:10:09;;;;;;;4.25;2.40;;;5.30;96.30;;;;;;6151214;23;20342;-71
2023/11/22 08:12:37;;;;;;;4.95;2.78;;;5.30;96.30;;;;;;6151283;23;20002;-68
2023/11/22 08:15:03;;;;;;;4.15;2.30;;;5.30;96.30;;;;;;6150768;23;20009;-68
2023/11/22 08:17:29;;;;;;;3.75;2.20;;;5.40;96.30;;;;;;6150174;23;20499;-70
2023/11/22 08:19:55;;;;;;;4.88;2.55;;;5.30;96.20;;;;;;6150336;23;20068;-68
2023/11/22 08:22:21;;;;;;;4.13;2.58;;;5.30;96.30;;;;;;6125058;23;20001;-68
2023/11/22 08:24:47;;;;;;;5.18;2.72;;;5.40;96.40;;;;;;6151055;23;20064;-68
2023/11/22 08:27:15;;;;;;;4.90;2.80;;;5.40;96.50;;;;;;6151526;23;20092;-68
2023/11/22 08:29:40;;;;;;;4.38;2.70;;;5.40;96.50;;;;;;6151537;23;20048;-68
2023/11/22 08:32:06;;;;;;;5.57;3.00;;;5.40;96.40;;;;;;6151030;23;20009;-69
2023/11/22 08:34:32;;;;;;;5.85;3.08;;;5.40;96.40;;;;;;6124622;23;20006;-69
2023/11/22 08:36:59;;;;;;;4.78;2.55;;;5.30;96.60;;;;;;6151187;23;20012;-69
2023/11/22 08:39:24;;;;;;;2.95;2.10;;;5.40;96.60;;;;;;6149154;23;20005;-69
2023/11/22 08:41:50;;;;;;;4.88;2.75;;;5.40;96.60;;;;;;6151012;23;20374;-71
2023/11/22 08:44:16;;;;;;;4.25;2.70;;;5.40;96.40;;;;;;6150640;23;20011;-68
2023/11/22 08:46:41;;;;;;;4.05;2.08;;;5.50;96.60;;;;;;6151100;23;20060;-68
2023/11/22 08:49:07;;;;;;;5.82;2.97;;;5.50;96.50;;;;;;6150189;23;20085;-70
2023/11/22 08:51:33;;;;;;;4.85;2.83;;;5.50;96.50;;;;;;6149478;23;20002;-69
2023/11/22 08:53:59;;;;;;;4.68;2.38;;;5.60;96.60;;;;;;6124598;23;20009;-69
2023/11/22 08:56:24;;;;;;;5.80;3.10;;;5.70;96.50;;;;;;6125643;23;20771;-71
2023/11/22 08:58:50;;;;;;;4.43;2.53;;;5.70;96.30;;;;;;6124933;23;20002;-73
2023/11/22 09:01:16;;;;;;;4.18;2.67;;;5.70;96.30;;;;;;6150917;23;20001;-71
2023/11/22 09:03:42;;;;;;;4.63;2.30;;;5.70;96.30;;;;;;6124657;23;19931;-69
2023/11/22 09:06:07;;;;;;;3.75;2.30;;;5.80;96.30;;;;;;6124794;23;19998;-69
2023/11/22 09:08:33;;;;;;;4.32;2.50;;;5.90;96.20;;;;;;6124775;23;20002;-70
2023/11/22 09:10:58;;;;;;;3.80;2.15;;;5.90;96.20;;;;;;6149327;23;20005;-71
2023/11/22 09:13:24;;;;;;;2.75;1.80;;;6.00;96.20;;;;;;6150725;23;20093;-70
2023/11/22 09:15:50;;;;;;;4.60;2.75;;;6.10;96.10;;;;;;6150997;23;20001;-69
2023/11/22 09:18:16;;;;;;;5.55;3.30;;;6.10;96.00;;;;;;6150770;23;20015;-69
2023/11/22 09:20:45;;;;;;;5.93;3.58;;;6.00;96.00;;;;;;6124798;23;20088;-70
2023/11/22 09:23:11;;;;;;;6.80;4.10;;;6.00;96.10;;;;;;6149093;23;20005;-70
2023/11/22 09:25:37;;;;;;;5.70;3.55;;;6.00;96.20;;;;;;6150239;23;20416;-68
2023/11/22 09:28:03;;;;;;;6.45;3.47;;;6.00;96.20;;;;;;6122298;23;20315;-71
2023/11/22 09:30:35;;;;;;;5.65;3.30;;;5.90;96.20;;;;;;6124697;23;20012;-71
2023/11/22 09:33:14;;;;;;;6.03;3.30;;;5.90;96.30;;;;;;6150457;23;20338;-68
2023/11/22 09:35:43;;;;;;;6.32;3.53;;;6.00;96.30;;;;;;6150737;23;20036;-71
2023/11/22 09:38:11;;;;;;;8.02;4.40;;;6.00;96.30;;;;;;6150301;23;20009;-70
2023/11/22 09:40:46;;;;;;;6.60;3.95;;;6.00;96.30;;;;;;6150875;23;20060;-70
2023/11/22 09:43:15;;;;;;;6.03;3.67;;;6.10;96.30;;;;;;6149402;23;20006;-68
2023/11/22 09:45:40;;;;;;;7.43;3.90;;;6.10;96.10;;;;;;6149346;23;20004;-68
2023/11/22 09:48:17;;;;;;;8.15;4.07;;;6.20;96.00;;;;;;6150422;23;20006;-67
2023/11/22 09:50:50;;;;;;;9.45;4.78;;;6.30;96.00;;;;;;6151840;23;20056;-69
2023/11/22 09:53:29;;;;;;;7.40;4.20;;;6.30;95.90;;;;;;6151724;23;20006;-68
2023/11/22 09:55:55;;;;;;;10.85;6.15;;;6.40;95.70;;;;;;6151344;23;20009;-71
2023/11/22 09:58:21;;;;;;;10.32;5.53;;;6.30;95.50;;;;;;6151487;23;20496;-70
2023/11/22 10:00:48;;;;;;;11.85;6.57;;;6.40;95.40;;;;;;6150422;23;20573;-68
2023/11/22 10:03:14;;;;;;;10.13;5.20;;;6.40;95.30;;;;;;6150794;23;20013;-70
2023/11/22 10:05:43;;;;;;;12.80;5.97;;;6.50;95.20;;;;;;6150732;23;20002;-68
2023/11/22 10:08:09;;;;;;;9.88;5.47;;;6.40;95.10;;;;;;6150314;23;20438;-67
2023/11/22 10:10:36;;;;;;;14.25;7.10;;;6.40;95.00;;;;;;6150637;23;20005;-67
2023/11/22 10:13:03;;;;;;;10.18;5.75;;;6.50;94.90;;;;;;6150514;23;20032;-70
2023/11/22 10:15:29;;;;;;;12.02;6.03;;;6.40;94.80;;;;;;6150712;23;20038;-68
2023/11/22 10:17:56;;;;;;;8.73;4.93;;;6.40;94.80;;;;;;6150083;23;20002;-69
2023/11/22 10:20:34;;;;;;;9.98;5.25;;;6.50;94.80;;;;;;6150188;23;20002;-71
2023/11/22 10:23:00;;;;;;;7.78;4.30;;;6.50;94.70;;;;;;6123909;23;20002;-72
2023/11/22 10:25:26;;;;;;;8.32;4.43;;;6.60;94.70;;;;;;6148559;23;20008;-68
2023/11/22 10:27:51;;;;;;;10.38;5.53;;;6.60;94.70;;;;;;6149855;23;19997;-68
2023/11/22 10:30:18;;;;;;;8.27;4.72;;;6.60;94.60;;;;;;6150208;23;20002;-69
2023/11/22 10:32:45;;;;;;;9.15;5.05;;;6.60;94.50;;;;;;6150628;23;20009;-71
2023/11/22 10:35:14;;;;;;;8.68;4.70;;;6.70;94.50;;;;;;6123516;23;20017;-69
2023/11/22 10:37:41;;;;;;;9.85;5.60;;;6.70;94.50;;;;;;6149970;23;20006;-70
2023/11/22 10:40:09;;;;;;;9.10;5.55;;;6.70;94.40;;;;;;6150010;23;20096;-71
2023/11/22 10:42:38;;;;;;;9.02;4.97;;;6.70;94.20;;;;;;6149612;23;20028;-69
2023/11/22 10:45:07;;;;;;;13.35;6.32;;;6.80;94.20;;;;;;6149835;23;20362;-70
2023/11/22 10:47:38;;;;;;;8.77;5.25;;;6.90;94.10;;;;;;6150228;23;20603;-69
2023/11/22 10:50:04;;;;;;;8.30;4.30;;;6.90;93.90;;;;;;6147385;23;20048;-71
2023/11/22 10:52:30;;;;;;;5.13;3.10;;;7.00;93.90;;;;;;6149636;23;20041;-70
2023/11/22 10:55:03;;;;;;;6.63;3.80;;;7.10;93.80;;;;;;6122907;23;20033;-70
2023/11/22 10:57:33;;;;;;;5.75;3.28;;;7.10;93.80;;;;;;6149915;23;20006;-69
2023/11/22 11:00:11;;;;;;;7.85;4.55;;;7.20;93.70;;;;;;6148970;23;20500;-68
2023/11/22 11:37:59;;;;;;;9.35;5.38;;;7.50;92.70;;;;;;6140399;23;20457;-68
2023/11/22 11:40:35;;;;;;;11.50;6.40;;;7.50;92.50;;;;;;6145991;23;20016;-69
2023/11/22 11:43:00;;;;;;;11.02;6.45;;;7.50;92.30;;;;;;6149585;23;20033;-70
2023/11/22 11:45:27;;;;;;;11.70;6.13;;;7.40;92.20;;;;;;6149767;23;20005;-69
2023/11/22 11:47:53;;;;;;;11.55;6.22;;;7.40;92.20;;;;;;6146329;23;20015;-68
2023/11/22 11:50:21;;;;;;;11.30;5.10;;;7.40;92.10;;;;;;6149861;23;20426;-68
2023/11/22 11:52:47;;;;;;;8.25;4.53;;;7.40;92.20;;;;;;6151776;23;20012;-68
2023/11/22 11:55:13;;;;;;;9.63;5.60;;;7.40;92.30;;;;;;6151482;23;20005;-69
2023/11/22 11:57:41;;;;;;;10.40;5.50;;;7.60;92.30;;;;;;6150970;23;20037;-68
2023/11/22 12:00:09;;;;;;;10.32;5.97;;;7.70;92.00;;;;;;6151364;23;20013;-68
2023/11/22 12:02:35;;;;;;;11.32;6.22;;;7.80;91.70;;;;;;6150256;23;20601;-70
2023/11/22 12:05:06;;;;;;;12.13;6.55;;;7.70;91.60;;;;;;6150259;23;20029;-70
2023/11/22 12:07:31;;;;;;;13.10;7.80;;;7.60;91.60;;;;;;6151293;23;20092;-68
2023/11/22 12:09:57;;;;;;;10.77;5.72;;;7.50;91.70;;;;;;6151083;23;20702;-68
2023/11/22 12:12:23;;;;;;;11.15;6.65;;;7.50;91.80;;;;;;6151532;23;20009;-69
2023/11/22 12:14:49;;;;;;;9.35;5.10;;;7.50;91.90;;;;;;6125353;23;20005;-69
2023/11/22 12:17:16;;;;;;;12.68;6.75;;;7.60;92.00;;;;;;6149427;23;20005;-71
2023/11/22 12:19:41;;;;;;;13.13;7.38;;;7.80;91.80;;;;;;6125016;23;20694;-71
2023/11/22 12:22:07;;;;;;;10.38;5.60;;;8.10;91.60;;;;;;6151239;23;20008;-71
2023/11/22 12:24:34;;;;;;;7.60;4.30;;;8.60;91.20;;;;;;6124810;23;20011;-68
2023/11/22 12:27:00;;;;;;;12.52;6.43;;;9.10;90.50;;;;;;6151562;23;20005;-68
2023/11/22 12:29:25;;;;;;;10.38;6.13;;;9.20;89.80;;;;;;6151064;23;20617;-68
2023/11/22 12:31:54;;;;;;;12.00;7.10;;;9.30;89.30;;;;;;6151466;23;20029;-68
2023/11/22 12:34:20;;;;;;;13.80;6.63;;;9.40;88.30;;;;;;6150279;23;20005;-69
2023/11/22 12:36:47;;;;;;;9.52;5.28;;;9.40;88.00;;;;;;6151104;23;20380;-70
2023/11/22 12:39:16;;;;;;;8.52;4.30;;;9.60;87.70;;;;;;6124406;23;20048;-70
2023/11/22 12:41:47;;;;;;;9.63;4.90;;;9.60;87.70;;;;;;6151037;23;20442;-68
2023/11/22 12:44:13;;;;;;;8.50;4.90;;;9.50;87.60;;;;;;6150591;23;20427;-73
2023/11/22 12:46:59;;;;;;;7.80;4.15;;;9.70;87.80;;;;;;6124847;23;20017;-68
2023/11/22 12:49:26;;;;;;;9.23;4.68;;;9.70;87.40;;;;;;6149109;23;20002;-70
2023/11/22 12:51:56;;;;;;;16.25;8.30;;;9.60;87.60;;;;;;6150040;23;20083;-68
2023/11/22 12:54:22;;;;;;;15.90;7.68;;;9.40;86.80;;;;;;6151006;23;20391;-68
2023/11/22 12:56:58;;;;;;;12.35;5.80;;;9.50;86.70;;;;;;6150467;23;20005;-68
2023/11/22 12:59:24;;;;;;;9.50;5.07;;;9.80;86.60;;;;;;6151434;23;20104;-70
2023/11/22 13:01:50;;;;;;;10.15;5.05;;;9.60;86.20;;;;;;6123887;23;20738;-68
2023/11/22 13:04:16;;;;;;;12.60;6.18;;;9.60;86.60;;;;;;6150621;23;20001;-69
2023/11/22 13:06:42;;;;;;;11.15;5.68;;;9.60;86.50;;;;;;6149988;23;20001;-71
2023/11/22 13:09:14;;;;;;;12.20;6.20;;;9.60;86.40;;;;;;6149601;23;20076;-70
2023/11/22 13:11:41;;;;;;;9.68;4.93;;;9.40;86.40;;;;;;6150068;23;20002;-70
2023/11/22 13:14:06;;;;;;;13.00;6.43;;;9.20;86.80;;;;;;6149748;23;20036;-68
2023/11/22 13:16:34;;;;;;;13.68;6.75;;;9.00;86.80;;;;;;6124448;23;20001;-70
2023/11/22 13:18:59;;;;;;;12.35;6.40;;;8.70;87.10;;;;;;6149507;23;20385;-68
2023/11/22 13:21:25;;;;;;;11.55;5.82;;;8.50;87.40;;;;;;6123874;23;20060;-69
2023/11/22 13:23:50;;;;;;;7.90;4.32;;;8.40;87.80;;;;;;6149762;23;20005;-69
2023/11/22 13:26:16;;;;;;;9.32;4.88;;;8.40;88.30;;;;;;6150191;23;20121;-68
2023/11/22 13:28:42;;;;;;;12.70;6.82;;;8.30;88.30;;;;;;6149565;23;20730;-68
2023/11/22 13:31:08;;;;;;;15.88;8.23;;;8.20;88.30;;;;;;6150179;23;20445;-68
2023/11/22 13:33:34;;;;;;;12.48;6.18;;;8.00;87.60;;;;;;6148299;23;20009;-70
2023/11/22 13:35:59;;;;;;;10.95;5.50;;;7.90;87.90;;;;;;6148753;23;20454;-68
2023/11/22 13:38:25;;;;;;;10.68;5.13;;;7.90;88.30;;;;;;6149072;23;20006;-70
2023/11/22 13:40:51;;;;;;;9.10;4.50;;;7.90;88.60;;;;;;6149347;23;20018;-69
2023/11/22 13:43:18;;;;;;;13.10;7.28;;;7.90;88.70;;;;;;6148975;23;20438;-67
2023/11/22 13:45:45;;;;;;;12.70;6.43;;;7.90;88.40;;;;;;6121564;23;20001;-68
2023/11/22 13:48:11;;;;;;;13.75;6.80;;;7.80;88.40;;;;;;6147781;23;20002;-69
2023/11/22 13:50:37;;;;;;;15.02;7.47;;;7.70;88.40;;;;;;6148242;23;20002;-69
2023/11/22 13:53:03;;;;;;;13.65;6.85;;;7.70;88.50;;;;;;6148455;23;20002;-69